Flugplatz Taucha

Für EDCT sind keine METAR/TAF Berichte vorhanden.
Es werden die Flugwettermeldungen vom Flugplatz Leipzig Halle in 21 km Entfernung angezeigt.

Bericht für EDDP

vom 25.10. um 17:20 UTC

Wind 6 kt aus 160°

Sichtweite 10 km oder mehr

gute Sicht, keine Wolken < 5000 ft, keine CB, keine Wettererscheinungen (CAVOK)

Temperatur 9.0°C

Taupunkt 5.0°C

Luftfeuchtigkeit 76%

Luftdruck 1019 hPa

keine wesentliche Wetteränderung innerhalb den nächsten 2 Stunden zu erwarten

EDDP 251720Z 16006KT CAVOK 09/05 Q1019 NOSIG

Prognose für EDDP

vom 25.10. um 17:00 UTC

Zwischen 18:00 UTC und 09:00 UTC

Wind 7 kt aus 190°

Sichtweite 10 km oder mehr

keine signifikanten Wettererscheinungen

keine Wolken


Am 26.10. zwischen 09:00 UTC und 11:00 UTC zeitweise mit einer Wahrscheinlichkeit von 30%

aufgebrochene Bewölkung in 1300 ft


Am 26.10. zwischen 09:00 und 12:00 UTC übergehend zu

Wind 11 kt aus 250°

Sichtweite 10 km oder mehr

keine signifikanten Wettererscheinungen

keine Wolken

TAF EDDP 251700Z 2518/2618 19007KT CAVOK PROB30 TEMPO 2609/2611 BKN013 BECMG 2609/2612 25011KT
Impressum